createdAt,value
2019-04-27T00:00:47.060Z,80.80
2019-04-27T00:03:41.142Z,82.70
2019-04-27T00:06:08.683Z,84.60
2019-04-27T00:08:43.117Z,81.90
2019-04-27T00:11:13.782Z,82.50
2019-04-27T00:13:43.994Z,83.70
2019-04-27T00:16:29.827Z,86.20
2019-04-27T00:19:06.489Z,86.60
2019-04-27T00:21:55.137Z,88.30
2019-04-27T00:24:24.094Z,89.50
2019-04-27T00:26:54.044Z,90.30
2019-04-27T00:29:23.628Z,90.80
2019-04-27T00:31:55.677Z,91.20
2019-04-27T00:34:24.168Z,92.20
2019-04-27T00:36:54.676Z,92.50
2019-04-27T00:39:25.067Z,92.70
2019-04-27T00:41:53.918Z,92.50
2019-04-27T00:44:23.685Z,92.80
2019-04-27T00:46:53.406Z,92.90
2019-04-27T00:49:23.790Z,92.80
2019-04-27T00:51:53.584Z,93.10
2019-04-27T00:54:23.766Z,93.30
2019-04-27T00:56:54.360Z,93.40
2019-04-27T00:59:43.039Z,93.50
2019-04-27T01:02:19.677Z,93.50
2019-04-27T01:04:48.911Z,93.60
2019-04-27T01:07:17.871Z,93.70
2019-04-27T01:09:46.823Z,93.50
2019-04-27T01:12:15.822Z,93.40
2019-04-27T01:14:45.154Z,93.90
2019-04-27T01:17:14.136Z,93.60
2019-04-27T01:19:43.068Z,93.50
2019-04-27T01:22:11.939Z,93.60
2019-04-27T01:24:40.781Z,93.70
2019-04-27T01:27:20.476Z,94.10
2019-04-27T01:29:50.228Z,94.40
2019-04-27T01:32:20.721Z,94.40
2019-04-27T01:34:49.669Z,94.40
2019-04-27T01:37:19.712Z,94.60
2019-04-27T01:39:50.379Z,94.60
2019-04-27T01:42:19.625Z,94.70
2019-04-27T01:44:49.596Z,94.90
2019-04-27T01:47:18.990Z,95.10
2019-04-27T01:49:49.425Z,95.60
2019-04-27T01:52:19.438Z,96.00
2019-04-27T01:54:49.573Z,95.80
2019-04-27T01:57:19.402Z,95.70
2019-04-27T01:59:48.898Z,95.80
2019-04-27T02:02:32.622Z,95.70
2019-04-27T02:05:03.040Z,95.50
2019-04-27T02:07:32.075Z,95.70
2019-04-27T02:10:00.967Z,95.80
2019-04-27T02:12:31.471Z,95.80
2019-04-27T02:15:00.487Z,95.80
2019-04-27T02:17:29.415Z,95.50
2019-04-27T02:19:59.530Z,95.50
2019-04-27T02:22:29.738Z,95.60
2019-04-27T02:24:59.179Z,95.60
2019-04-27T02:27:29.730Z,95.80
2019-04-27T02:30:03.083Z,96.30
2019-04-27T02:32:33.462Z,96.50
2019-04-27T02:35:03.901Z,96.40
2019-04-27T02:37:32.842Z,96.50
2019-04-27T02:40:01.708Z,96.30
2019-04-27T02:42:32.147Z,96.60
2019-04-27T02:45:01.064Z,96.40
2019-04-27T02:47:29.896Z,96.30
2019-04-27T02:50:00.658Z,96.30
2019-04-27T02:52:30.863Z,96.10
2019-04-27T02:54:59.737Z,96.10
2019-04-27T02:57:30.113Z,96.30
2019-04-27T03:00:00.017Z,95.40
2019-04-27T03:02:33.453Z,95.60
2019-04-27T03:05:02.358Z,95.70
2019-04-27T03:07:31.308Z,96.00
2019-04-27T03:10:02.274Z,96.00
2019-04-27T03:12:32.263Z,95.80
2019-04-27T03:15:02.785Z,95.50
2019-04-27T03:17:49.455Z,95.60
2019-04-27T03:20:22.510Z,95.50
2019-04-27T03:22:52.965Z,95.50
2019-04-27T03:25:23.349Z,95.40
2019-04-27T03:28:00.085Z,95.60
2019-04-27T03:30:31.792Z,95.90
2019-04-27T03:33:03.172Z,96.00
2019-04-27T03:35:35.270Z,95.50
2019-04-27T03:38:00.515Z,95.30
2019-04-27T03:40:30.775Z,95.40
2019-04-27T03:43:01.456Z,94.70
2019-04-27T03:45:30.390Z,95.20
2019-04-27T03:48:00.534Z,95.60
2019-04-27T03:50:31.132Z,96.00
2019-04-27T03:53:10.482Z,96.10
2019-04-27T03:55:42.729Z,96.20
2019-04-27T03:58:31.336Z,96.50
2019-04-27T04:01:00.251Z,96.50
2019-04-27T04:03:29.793Z,96.60
2019-04-27T04:06:00.290Z,96.30
2019-04-27T04:08:30.756Z,96.30
2019-04-27T04:11:10.421Z,96.50
2019-04-27T04:13:43.641Z,96.60
2019-04-27T04:16:14.113Z,96.90
2019-04-27T04:18:56.214Z,97.30
2019-04-27T04:21:25.184Z,97.70
2019-04-27T04:23:54.047Z,97.70
2019-04-27T04:26:22.960Z,97.20
2019-04-27T04:28:51.822Z,97.10
2019-04-27T04:31:21.111Z,96.90
2019-04-27T04:33:50.102Z,97.00
2019-04-27T04:36:20.106Z,97.00
2019-04-27T04:38:50.451Z,96.40
2019-04-27T04:41:32.837Z,96.10
2019-04-27T04:44:20.370Z,95.40
2019-04-27T04:47:00.311Z,95.80
2019-04-27T04:49:29.798Z,95.90
2019-04-27T04:51:59.467Z,95.90
2019-04-27T04:54:30.037Z,95.90
2019-04-27T04:56:59.548Z,96.00
2019-04-27T04:59:29.197Z,96.40
2019-04-27T05:02:01.854Z,95.90
2019-04-27T05:04:29.247Z,95.70
2019-04-27T05:06:59.183Z,95.50
2019-04-27T05:09:29.546Z,95.30
2019-04-27T05:11:58.755Z,95.50
2019-04-27T05:14:28.851Z,95.40
2019-04-27T05:16:59.243Z,95.30
2019-04-27T05:19:28.881Z,95.40
2019-04-27T05:21:59.286Z,95.50
2019-04-27T05:24:30.067Z,95.40
2019-04-27T05:26:59.172Z,95.00
2019-04-27T05:29:29.317Z,94.90
2019-04-27T05:31:59.242Z,94.70
2019-04-27T05:34:29.387Z,94.40
2019-04-27T05:36:59.341Z,94.20
2019-04-27T05:39:29.924Z,93.30
2019-04-27T05:41:59.779Z,93.00
2019-04-27T05:44:52.402Z,92.70
2019-04-27T05:47:22.843Z,92.40
2019-04-27T05:49:53.480Z,92.00
2019-04-27T05:52:29.502Z,92.00
2019-04-27T05:54:59.272Z,92.30
2019-04-27T05:57:30.998Z,91.90
2019-04-27T06:00:02.014Z,90.40
2019-04-27T06:02:30.561Z,91.30
2019-04-27T06:05:00.143Z,92.80
2019-04-27T06:07:29.581Z,94.40
2019-04-27T06:09:59.885Z,95.30
2019-04-27T06:12:29.803Z,95.90
2019-04-27T06:14:59.846Z,96.40
2019-04-27T06:17:30.024Z,96.50
2019-04-27T06:19:59.700Z,96.40
2019-04-27T06:22:29.366Z,95.80
2019-04-27T06:25:00.029Z,95.80
2019-04-27T06:27:30.731Z,95.90
2019-04-27T06:29:59.590Z,95.20
2019-04-27T06:32:29.522Z,95.40
2019-04-27T06:34:59.098Z,95.80
2019-04-27T06:37:29.403Z,95.80
2019-04-27T06:39:59.711Z,95.90
2019-04-27T06:42:29.633Z,95.40
2019-04-27T06:44:59.977Z,95.10
2019-04-27T06:47:29.512Z,95.60
2019-04-27T06:49:58.813Z,96.20
2019-04-27T06:52:29.144Z,96.60
2019-04-27T06:54:58.357Z,97.00
2019-04-27T06:57:29.133Z,96.70
2019-04-27T06:59:59.166Z,96.80
2019-04-27T07:02:29.088Z,96.80
2019-04-27T07:04:59.207Z,96.60
2019-04-27T07:07:29.438Z,97.00
2019-04-27T07:09:59.159Z,96.50
2019-04-27T07:12:28.753Z,96.70
2019-04-27T07:14:59.228Z,96.70
2019-04-27T07:17:28.959Z,96.80
2019-04-27T07:19:59.441Z,96.70
2019-04-27T07:22:29.824Z,96.80
2019-04-27T07:24:59.116Z,96.70
2019-04-27T07:27:29.127Z,97.10
2019-04-27T07:29:59.595Z,96.80
2019-04-27T07:32:29.229Z,96.70
2019-04-27T07:34:58.672Z,97.10
2019-04-27T07:37:29.280Z,96.80
2019-04-27T07:39:59.154Z,96.60
2019-04-27T07:42:32.193Z,96.80
2019-04-27T07:45:01.976Z,97.30
2019-04-27T07:47:31.785Z,97.30
2019-04-27T07:50:01.514Z,97.60
2019-04-27T07:52:32.161Z,97.60
2019-04-27T07:55:00.996Z,97.30
2019-04-27T07:57:33.710Z,97.60
2019-04-27T08:00:05.093Z,97.70
2019-04-27T08:02:33.919Z,98.30
2019-04-27T08:05:02.886Z,96.70
2019-04-27T08:07:31.898Z,96.00
2019-04-27T08:10:01.696Z,95.10
2019-04-27T08:12:30.832Z,96.60
2019-04-27T08:15:00.356Z,97.10
2019-04-27T08:17:30.263Z,97.40
2019-04-27T08:19:59.702Z,97.70
2019-04-27T08:22:29.171Z,97.90
2019-04-27T08:24:59.456Z,98.10
2019-04-27T08:27:30.075Z,98.20
2019-04-27T08:30:02.797Z,97.30
2019-04-27T08:32:33.208Z,97.60
2019-04-27T08:35:02.066Z,98.10
2019-04-27T08:37:31.046Z,97.70
2019-04-27T08:39:59.875Z,98.70
2019-04-27T08:42:29.383Z,98.50
2019-04-27T08:44:59.445Z,98.10
2019-04-27T08:47:29.363Z,98.80
2019-04-27T08:49:59.144Z,98.70
2019-04-27T08:52:30.302Z,98.10
2019-04-27T08:54:59.478Z,98.10
2019-04-27T08:57:28.980Z,99.20
2019-04-27T08:59:59.705Z,98.90
2019-04-27T09:02:39.840Z,98.90
2019-04-27T09:04:59.693Z,98.80
2019-04-27T09:07:33.226Z,98.50
2019-04-27T09:10:06.448Z,98.70
2019-04-27T09:12:53.684Z,98.00
2019-04-27T09:15:24.465Z,98.30
2019-04-27T09:17:54.970Z,98.20
2019-04-27T09:20:28.736Z,98.10
2019-04-27T09:22:59.240Z,97.60
2019-04-27T09:25:29.580Z,97.40
2019-04-27T09:27:59.763Z,97.50
2019-04-27T09:30:29.750Z,97.80
2019-04-27T09:32:59.091Z,97.60
2019-04-27T09:35:28.493Z,98.20
2019-04-27T09:37:57.375Z,97.70
2019-04-27T09:40:26.749Z,98.30
2019-04-27T09:42:57.157Z,98.00
2019-04-27T09:45:27.068Z,98.00
2019-04-27T09:47:56.446Z,97.60
2019-04-27T09:50:28.011Z,96.70
2019-04-27T09:52:56.050Z,96.80
2019-04-27T09:55:26.336Z,96.60
2019-04-27T09:57:56.886Z,95.80
2019-04-27T10:00:27.631Z,95.60
2019-04-27T10:02:56.664Z,94.80
2019-04-27T10:05:26.329Z,95.80
2019-04-27T10:07:56.935Z,94.00
2019-04-27T10:10:28.501Z,93.90
2019-04-27T10:12:57.452Z,93.10
2019-04-27T10:15:26.782Z,93.30
2019-04-27T10:17:57.625Z,92.40
2019-04-27T10:20:26.446Z,91.90
2019-04-27T10:22:56.836Z,92.80
2019-04-27T10:25:27.291Z,92.90
2019-04-27T10:27:59.156Z,92.60
2019-04-27T10:30:28.999Z,92.20
2019-04-27T10:32:57.863Z,91.20
2019-04-27T10:35:27.015Z,91.10
2019-04-27T10:37:56.020Z,91.40
2019-04-27T10:40:26.382Z,91.80
2019-04-27T10:42:56.096Z,92.00
2019-04-27T10:45:25.234Z,91.90
2019-04-27T10:47:56.083Z,91.30
2019-04-27T10:50:26.562Z,91.40
2019-04-27T10:52:56.789Z,91.30
2019-04-27T10:55:26.255Z,91.50
2019-04-27T10:57:55.568Z,91.80
2019-04-27T11:00:31.967Z,92.10
2019-04-27T11:03:00.996Z,92.70
2019-04-27T11:05:38.823Z,92.00
2019-04-27T11:08:08.690Z,91.10
2019-04-27T11:10:37.611Z,91.50
2019-04-27T11:13:09.362Z,91.10
2019-04-27T11:15:38.573Z,91.10
2019-04-27T11:18:07.461Z,90.70
2019-04-27T11:20:36.383Z,90.40
2019-04-27T11:23:09.186Z,88.90
2019-04-27T11:25:36.521Z,88.90
2019-04-27T11:28:05.858Z,88.40
2019-04-27T11:30:34.923Z,89.60
2019-04-27T11:33:03.826Z,90.10
2019-04-27T11:35:35.747Z,89.50
2019-04-27T11:38:05.626Z,87.60
2019-04-27T11:40:36.380Z,86.30
2019-04-27T11:43:05.926Z,85.00
2019-04-27T11:45:36.643Z,83.20
2019-04-27T11:48:05.911Z,82.70
2019-04-27T11:50:35.817Z,81.60
2019-04-27T11:53:06.167Z,79.40
2019-04-27T11:55:35.257Z,80.40
2019-04-27T11:58:04.110Z,81.20
2019-04-27T12:00:33.213Z,80.60
2019-04-27T12:03:02.167Z,80.60
2019-04-27T12:05:31.147Z,81.50
2019-04-27T12:08:00.136Z,81.90
2019-04-27T12:10:29.004Z,82.00
2019-04-27T12:12:57.879Z,81.80
2019-04-27T12:15:26.816Z,82.40
2019-04-27T12:17:56.149Z,82.00
2019-04-27T12:20:25.772Z,80.50
2019-04-27T12:22:55.203Z,75.50
2019-04-27T12:25:24.083Z,78.10
2019-04-27T12:27:57.451Z,79.80
2019-04-27T12:30:30.918Z,79.70
2019-04-27T12:32:59.835Z,80.10
2019-04-27T12:35:28.724Z,79.80
2019-04-27T12:37:57.946Z,79.60
2019-04-27T12:40:26.977Z,80.20
2019-04-27T12:42:55.847Z,79.10
2019-04-27T12:45:26.541Z,76.70
2019-04-27T12:47:56.582Z,79.00
2019-04-27T12:50:26.205Z,81.90
2019-04-27T12:52:56.746Z,84.90
2019-04-27T12:55:33.172Z,86.50
2019-04-27T12:58:21.844Z,89.00
2019-04-27T13:01:07.263Z,89.50
2019-04-27T13:03:36.372Z,90.40
2019-04-27T13:06:05.429Z,90.50
2019-04-27T13:08:35.714Z,91.40
2019-04-27T13:11:05.998Z,92.10
2019-04-27T13:13:36.702Z,88.10
2019-04-27T13:16:06.520Z,86.40
2019-04-27T13:18:36.111Z,88.30
2019-04-27T13:21:05.121Z,88.60
2019-04-27T13:23:33.985Z,86.00
2019-04-27T13:26:03.823Z,88.10
2019-04-27T13:28:32.686Z,84.30
2019-04-27T13:31:01.530Z,87.00
2019-04-27T13:33:30.572Z,87.50
2019-04-27T13:35:59.407Z,90.60
2019-04-27T13:38:28.325Z,89.70
2019-04-27T13:41:07.448Z,89.70
2019-04-27T13:43:38.985Z,91.10
2019-04-27T13:46:09.933Z,92.20
2019-04-27T13:48:57.073Z,91.80
2019-04-27T13:51:39.593Z,92.30
2019-04-27T13:54:17.130Z,91.50
2019-04-27T13:56:39.073Z,92.20
2019-04-27T13:59:07.982Z,93.00
2019-04-27T14:01:37.000Z,92.50
2019-04-27T14:04:07.020Z,91.60
2019-04-27T14:06:36.417Z,90.60
2019-04-27T14:09:09.260Z,90.10
2019-04-27T14:11:39.361Z,90.00
2019-04-27T14:14:08.369Z,89.80
2019-04-27T14:16:39.042Z,83.50
2019-04-27T14:19:08.604Z,84.70
2019-04-27T14:21:38.728Z,87.20
2019-04-27T14:24:07.976Z,88.50
2019-04-27T14:26:38.472Z,89.10
2019-04-27T14:29:08.751Z,90.20
2019-04-27T14:31:39.467Z,88.10
2019-04-27T14:34:09.111Z,87.50
2019-04-27T14:36:40.479Z,86.90
2019-04-27T14:39:10.393Z,88.30
2019-04-27T14:41:40.641Z,89.00
2019-04-27T14:44:10.644Z,88.00
2019-04-27T14:46:39.830Z,86.30
2019-04-27T14:49:08.630Z,85.70
2019-04-27T14:51:39.908Z,85.80
2019-04-27T14:54:09.248Z,87.00
2019-04-27T14:56:38.742Z,87.00
2019-04-27T14:59:08.050Z,86.50
2019-04-27T15:01:38.165Z,83.60
2019-04-27T15:04:07.585Z,83.20
2019-04-27T15:06:36.485Z,82.30
2019-04-27T15:09:07.180Z,83.20
2019-04-27T15:11:36.584Z,82.30
2019-04-27T15:14:05.565Z,82.70
2019-04-27T15:16:37.866Z,79.50
2019-04-27T15:19:06.523Z,77.60
2019-04-27T15:21:38.841Z,78.90
2019-04-27T15:24:10.270Z,80.00
2019-04-27T15:26:36.829Z,80.90
2019-04-27T15:29:07.228Z,82.20
2019-04-27T15:31:38.805Z,83.00
2019-04-27T15:34:23.417Z,82.30
2019-04-27T15:36:58.199Z,84.50
2019-04-27T15:39:45.010Z,84.70
2019-04-27T15:42:32.204Z,84.60
2019-04-27T15:45:01.088Z,85.40
2019-04-27T15:47:29.972Z,85.20
2019-04-27T15:49:59.853Z,83.60
2019-04-27T15:52:30.092Z,84.80
2019-04-27T15:55:02.747Z,85.30
2019-04-27T15:57:29.840Z,83.40
2019-04-27T15:59:59.580Z,85.40
2019-04-27T16:02:28.925Z,86.00
2019-04-27T16:04:58.312Z,83.30
2019-04-27T16:07:30.400Z,83.80
2019-04-27T16:09:59.157Z,83.80
2019-04-27T16:12:29.906Z,83.70
2019-04-27T16:14:58.758Z,84.60
2019-04-27T16:17:29.378Z,85.10
2019-04-27T16:19:58.269Z,86.30
2019-04-27T16:22:27.748Z,84.10
2019-04-27T16:24:58.111Z,83.10
2019-04-27T16:27:33.696Z,83.80
2019-04-27T16:29:57.891Z,83.40
2019-04-27T16:32:28.222Z,85.30
2019-04-27T16:34:59.130Z,85.70
2019-04-27T16:37:29.292Z,88.40
2019-04-27T16:39:58.888Z,89.30
2019-04-27T16:42:28.729Z,90.30
2019-04-27T16:44:58.199Z,90.20
2019-04-27T16:47:28.212Z,90.20
2019-04-27T16:49:58.604Z,90.40
2019-04-27T16:52:29.702Z,90.30
2019-04-27T16:55:00.606Z,90.50
2019-04-27T16:57:32.506Z,90.60
2019-04-27T17:00:01.164Z,90.10
2019-04-27T17:02:30.302Z,91.10
2019-04-27T17:04:59.215Z,90.70
2019-04-27T17:07:30.223Z,92.30
2019-04-27T17:09:59.457Z,91.60
2019-04-27T17:12:29.820Z,91.50
2019-04-27T17:15:05.805Z,91.50
2019-04-27T17:17:35.592Z,92.10
2019-04-27T17:20:05.073Z,91.90
2019-04-27T17:22:33.978Z,92.00
2019-04-27T17:25:02.850Z,91.80
2019-04-27T17:27:38.153Z,92.80
2019-04-27T17:30:08.971Z,93.40
2019-04-27T17:32:39.732Z,93.60
2019-04-27T17:35:11.752Z,93.50
2019-04-27T17:37:40.908Z,93.80
2019-04-27T17:43:28.926Z,93.00
2019-04-27T17:46:13.232Z,93.60
2019-04-27T17:48:48.569Z,94.00
2019-04-27T17:51:21.381Z,94.10
2019-04-27T17:53:50.566Z,94.10
2019-04-27T17:59:32.723Z,94.40
2019-04-27T18:02:08.919Z,94.20
2019-04-27T18:04:40.977Z,93.90
2019-04-27T18:07:16.593Z,93.50
2019-04-27T18:09:58.556Z,94.40
2019-04-27T18:12:35.994Z,94.50
2019-04-27T18:15:10.519Z,95.10
2019-04-27T18:17:48.237Z,95.40
2019-04-27T18:20:28.910Z,95.10
2019-04-27T18:23:03.728Z,94.80
2019-04-27T18:25:40.381Z,94.90
2019-04-27T18:28:15.033Z,94.70
2019-04-27T18:31:01.797Z,94.70
2019-04-27T18:33:37.265Z,94.90
2019-04-27T18:36:13.835Z,94.90
2019-04-27T18:38:39.241Z,94.90
2019-04-27T18:41:15.218Z,94.60
2019-04-27T18:43:52.139Z,94.70
2019-04-27T18:46:24.697Z,94.20
2019-04-27T18:48:58.429Z,94.10
2019-04-27T18:51:32.838Z,94.20
2019-04-27T18:54:03.589Z,94.80
2019-04-27T18:56:33.296Z,94.80
2019-04-27T18:59:03.266Z,95.30
2019-04-27T19:01:36.399Z,95.70
2019-04-27T19:04:08.715Z,95.70
2019-04-27T19:06:39.139Z,96.00
2019-04-27T19:09:08.602Z,96.30
2019-04-27T19:11:38.337Z,95.90
2019-04-27T19:14:08.344Z,95.90
2019-04-27T19:16:38.371Z,96.20
2019-04-27T19:19:08.639Z,96.20
2019-04-27T19:21:39.287Z,96.00
2019-04-27T19:24:08.901Z,96.40
2019-04-27T19:26:56.357Z,96.70
2019-04-27T19:29:26.918Z,97.10
2019-04-27T19:32:02.527Z,97.40
2019-04-27T19:34:31.553Z,97.60
2019-04-27T19:37:02.259Z,97.80
2019-04-27T19:39:33.209Z,97.90
2019-04-27T19:42:03.866Z,98.00
2019-04-27T19:44:32.820Z,98.30
2019-04-27T19:47:01.711Z,98.40
2019-04-27T19:49:31.778Z,98.40
2019-04-27T19:52:00.803Z,98.30
2019-04-27T19:54:30.215Z,98.40
2019-04-27T19:56:59.676Z,98.50
2019-04-27T19:59:30.357Z,98.50
2019-04-27T20:02:00.786Z,98.40
2019-04-27T20:04:31.526Z,98.50
2019-04-27T20:07:00.399Z,98.80
2019-04-27T20:09:47.836Z,99.10
2019-04-27T20:12:17.614Z,98.90
2019-04-27T20:14:55.921Z,99.00
2019-04-27T20:17:30.893Z,99.10
2019-04-27T20:20:01.332Z,99.00
2019-04-27T20:22:30.286Z,98.70
2019-04-27T20:25:01.516Z,98.70
2019-04-27T20:27:32.129Z,98.50
2019-04-27T20:30:00.700Z,98.60
2019-04-27T20:32:31.443Z,98.90
2019-04-27T20:35:01.487Z,99.00
2019-04-27T20:37:31.355Z,98.70
2019-04-27T20:40:01.611Z,98.60
2019-04-27T20:42:31.465Z,98.70
2019-04-27T20:45:01.923Z,98.80
2019-04-27T20:47:31.239Z,99.00
2019-04-27T20:50:00.141Z,99.20
2019-04-27T20:52:33.579Z,99.00
2019-04-27T20:55:02.435Z,99.00
2019-04-27T20:57:31.797Z,99.20
2019-04-27T21:00:02.020Z,99.10
2019-04-27T21:02:48.633Z,99.30
2019-04-27T21:05:35.740Z,99.30
2019-04-27T21:08:12.317Z,99.30
2019-04-27T21:10:41.490Z,99.40
2019-04-27T21:13:11.228Z,99.40
2019-04-27T21:15:41.895Z,99.00
2019-04-27T21:18:11.528Z,98.90
2019-04-27T21:20:41.160Z,99.40
2019-04-27T21:23:12.062Z,98.60
2019-04-27T21:25:42.114Z,98.70
2019-04-27T21:28:16.614Z,98.80
2019-04-27T21:30:42.399Z,98.70
2019-04-27T21:33:11.545Z,98.90
2019-04-27T21:35:40.514Z,99.20
2019-04-27T21:38:09.431Z,99.50
2019-04-27T21:40:38.299Z,99.50
2019-04-27T21:43:07.171Z,99.50
2019-04-27T21:45:36.088Z,99.20
2019-04-27T21:48:04.940Z,98.90
2019-04-27T21:50:33.787Z,99.10
2019-04-27T21:53:06.720Z,99.60
2019-04-27T21:55:37.119Z,99.10
2019-04-27T21:58:06.023Z,98.90
2019-04-27T22:00:43.103Z,98.90
2019-04-27T22:03:17.295Z,98.90
2019-04-27T22:05:46.286Z,98.70
2019-04-27T22:08:15.145Z,98.90
2019-04-27T22:10:43.998Z,99.00
2019-04-27T22:13:12.924Z,98.80
2019-04-27T22:15:41.787Z,99.00
2019-04-27T22:18:11.130Z,99.10
2019-04-27T22:20:42.443Z,98.70
2019-04-27T22:23:18.187Z,98.90
2019-04-27T22:25:47.091Z,98.80
2019-04-27T22:28:15.941Z,98.80
2019-04-27T22:30:44.804Z,98.90
2019-04-27T22:33:13.730Z,98.90
2019-04-27T22:35:42.686Z,98.50
2019-04-27T22:38:11.933Z,98.30
2019-04-27T22:40:51.411Z,98.60
2019-04-27T22:43:24.687Z,99.10
2019-04-27T22:45:54.107Z,99.80
2019-04-27T22:48:22.961Z,99.90
2019-04-27T22:50:53.267Z,99.90
2019-04-27T22:53:22.193Z,99.90
2019-04-27T22:56:08.749Z,99.90
2019-04-27T22:58:40.654Z,99.90
2019-04-27T23:01:13.958Z,99.90
2019-04-27T23:03:44.431Z,99.90
2019-04-27T23:06:13.286Z,99.90
2019-04-27T23:08:42.140Z,99.90
2019-04-27T23:11:11.922Z,99.90
2019-04-27T23:13:40.763Z,99.90
2019-04-27T23:16:11.579Z,99.90
2019-04-27T23:18:41.347Z,99.90
2019-04-27T23:21:11.759Z,99.90
2019-04-27T23:23:41.323Z,99.90
2019-04-27T23:26:11.935Z,99.90
2019-04-27T23:28:41.427Z,99.90
2019-04-27T23:31:17.898Z,99.90
2019-04-27T23:33:48.333Z,99.90
2019-04-27T23:36:17.192Z,99.90
2019-04-27T23:38:46.077Z,99.90
2019-04-27T23:41:14.945Z,99.90
2019-04-27T23:43:43.803Z,99.90
2019-04-27T23:46:12.716Z,99.90
2019-04-27T23:48:42.014Z,99.90
2019-04-27T23:51:12.622Z,99.90
2019-04-27T23:53:41.816Z,99.90
2019-04-27T23:56:10.857Z,99.90
2019-04-27T23:58:39.691Z,99.90
